sensor_id;sensor_type;location;lat;lon;timestamp;pressure;altitude;pressure_sealevel;temperature;humidity
26443;BME280;5563;52.296;6.806;2023-04-30T16:02:18;101997.88;;;18.46;38.54
26443;BME280;5563;52.296;6.806;2023-04-30T16:04:58;101997.03;;;18.36;38.76
26443;BME280;5563;52.296;6.806;2023-04-30T16:07:25;101997.84;;;18.36;39.17
26443;BME280;5563;52.296;6.806;2023-04-30T16:09:59;101987.06;;;18.36;40.31
26443;BME280;5563;52.296;6.806;2023-04-30T16:12:26;101994.88;;;18.39;38.99
26443;BME280;5563;52.296;6.806;2023-04-30T16:15:00;101988.38;;;18.22;38.91
26443;BME280;5563;52.296;6.806;2023-04-30T16:17:27;101983.44;;;18.08;39.51
26443;BME280;5563;52.296;6.806;2023-04-30T16:20:01;102009.00;;;18.14;40.39
26443;BME280;5563;52.296;6.806;2023-04-30T16:22:28;101983.16;;;17.92;39.88
26443;BME280;5563;52.296;6.806;2023-04-30T16:25:02;101988.00;;;17.79;40.13
26443;BME280;5563;52.296;6.806;2023-04-30T16:27:29;101978.06;;;17.61;41.01
26443;BME280;5563;52.296;6.806;2023-04-30T16:30:03;101994.25;;;17.51;42.12
26443;BME280;5563;52.296;6.806;2023-04-30T16:32:31;101974.47;;;17.41;42.59
26443;BME280;5563;52.296;6.806;2023-04-30T16:35:06;101974.19;;;17.35;41.34
26443;BME280;5563;52.296;6.806;2023-04-30T16:37:32;101987.09;;;17.41;42.02
26443;BME280;5563;52.296;6.806;2023-04-30T16:39:59;101990.72;;;17.51;42.56
26443;BME280;5563;52.296;6.806;2023-04-30T16:42:33;101978.88;;;17.42;41.58
26443;BME280;5563;52.296;6.806;2023-04-30T16:45:00;101999.38;;;17.54;41.02
26443;BME280;5563;52.296;6.806;2023-04-30T16:47:34;101971.06;;;17.39;41.80
26443;BME280;5563;52.296;6.806;2023-04-30T16:50:01;101979.59;;;17.44;42.06
26443;BME280;5563;52.296;6.806;2023-04-30T16:52:35;101982.88;;;17.48;42.12
26443;BME280;5563;52.296;6.806;2023-04-30T16:55:02;101959.00;;;17.34;41.96
26443;BME280;5563;52.296;6.806;2023-04-30T16:57:36;101974.59;;;17.30;41.01
26443;BME280;5563;52.296;6.806;2023-04-30T17:00:10;101950.44;;;17.00;42.06
26443;BME280;5563;52.296;6.806;2023-04-30T17:02:51;101954.53;;;16.94;42.37
26443;BME280;5563;52.296;6.806;2023-04-30T17:05:19;101961.31;;;16.89;41.60
26443;BME280;5563;52.296;6.806;2023-04-30T17:07:57;101951.34;;;16.80;42.16
26443;BME280;5563;52.296;6.806;2023-04-30T17:10:24;101956.16;;;16.67;43.13
26443;BME280;5563;52.296;6.806;2023-04-30T17:16:33;101951.28;;;16.51;42.99
26443;BME280;5563;52.296;6.806;2023-04-30T17:19:06;101942.25;;;16.41;44.54
26443;BME280;5563;52.296;6.806;2023-04-30T17:21:33;101942.38;;;16.30;44.89
26443;BME280;5563;52.296;6.806;2023-04-30T17:24:21;101943.47;;;16.28;44.68
26443;BME280;5563;52.296;6.806;2023-04-30T17:26:48;101947.81;;;16.19;44.83
26443;BME280;5563;52.296;6.806;2023-04-30T17:29:22;101946.44;;;16.04;44.58
26443;BME280;5563;52.296;6.806;2023-04-30T17:31:58;101927.22;;;15.88;44.66
26443;BME280;5563;52.296;6.806;2023-04-30T17:34:45;101941.94;;;15.84;44.97
26443;BME280;5563;52.296;6.806;2023-04-30T17:37:12;101934.78;;;15.73;44.58
26443;BME280;5563;52.296;6.806;2023-04-30T17:43:22;101923.06;;;15.43;45.99
26443;BME280;5563;52.296;6.806;2023-04-30T17:45:56;101913.91;;;15.34;45.56
26443;BME280;5563;52.296;6.806;2023-04-30T17:48:23;101926.22;;;15.37;46.78
26443;BME280;5563;52.296;6.806;2023-04-30T17:51:00;101909.09;;;15.17;46.40
26443;BME280;5563;52.296;6.806;2023-04-30T17:53:28;101913.84;;;15.13;45.85
26443;BME280;5563;52.296;6.806;2023-04-30T17:56:06;101927.06;;;15.17;47.72
26443;BME280;5563;52.296;6.806;2023-04-30T17:58:42;101927.41;;;15.12;47.28
26443;BME280;5563;52.296;6.806;2023-04-30T18:04:51;101921.13;;;14.91;47.47
26443;BME280;5563;52.296;6.806;2023-04-30T18:07:24;101905.16;;;14.78;48.44
26443;BME280;5563;52.296;6.806;2023-04-30T18:09:57;101906.97;;;14.78;49.31
26443;BME280;5563;52.296;6.806;2023-04-30T18:12:30;101930.06;;;14.80;48.12
26443;BME280;5563;52.296;6.806;2023-04-30T18:15:00;101912.53;;;14.54;48.68
26443;BME280;5563;52.296;6.806;2023-04-30T18:17:36;101918.59;;;14.56;49.07
26443;BME280;5563;52.296;6.806;2023-04-30T18:20:04;101909.97;;;14.42;48.43
26443;BME280;5563;52.296;6.806;2023-04-30T18:22:39;101912.19;;;14.37;48.99
26443;BME280;5563;52.296;6.806;2023-04-30T18:25:18;101935.94;;;14.41;49.94
26443;BME280;5563;52.296;6.806;2023-04-30T18:27:51;101929.84;;;14.28;49.84
26443;BME280;5563;52.296;6.806;2023-04-30T18:30:25;101920.03;;;14.16;50.82
26443;BME280;5563;52.296;6.806;2023-04-30T18:33:00;101919.06;;;14.06;51.31
26443;BME280;5563;52.296;6.806;2023-04-30T18:39:08;101914.16;;;13.78;51.86
26443;BME280;5563;52.296;6.806;2023-04-30T18:41:47;101903.38;;;13.67;52.43
26443;BME280;5563;52.296;6.806;2023-04-30T18:44:46;101925.78;;;13.66;52.49
26443;BME280;5563;52.296;6.806;2023-04-30T18:47:16;101915.88;;;13.44;53.32
26443;BME280;5563;52.296;6.806;2023-04-30T18:49:49;101896.56;;;13.28;52.62
26443;BME280;5563;52.296;6.806;2023-04-30T18:52:16;101907.59;;;13.24;53.13
26443;BME280;5563;52.296;6.806;2023-04-30T18:54:50;101901.13;;;13.15;54.20
26443;BME280;5563;52.296;6.806;2023-04-30T18:57:17;101910.81;;;13.05;54.41
26443;BME280;5563;52.296;6.806;2023-04-30T18:59:50;101907.19;;;12.93;55.47
26443;BME280;5563;52.296;6.806;2023-04-30T19:02:26;101915.69;;;12.87;56.18
26443;BME280;5563;52.296;6.806;2023-04-30T19:05:03;101899.97;;;12.70;56.36
26443;BME280;5563;52.296;6.806;2023-04-30T19:07:57;101905.03;;;12.62;55.92
26443;BME280;5563;52.296;6.806;2023-04-30T19:10:32;101913.97;;;12.50;55.72
26443;BME280;5563;52.296;6.806;2023-04-30T19:13:05;101918.88;;;12.44;57.25
26443;BME280;5563;52.296;6.806;2023-04-30T19:15:45;101925.44;;;12.40;56.36
26443;BME280;5563;52.296;6.806;2023-04-30T19:18:14;101908.75;;;12.24;58.01
26443;BME280;5563;52.296;6.806;2023-04-30T19:23:37;101930.97;;;12.24;58.56
26443;BME280;5563;52.296;6.806;2023-04-30T19:26:14;101905.88;;;12.02;58.17
26443;BME280;5563;52.296;6.806;2023-04-30T19:28:47;101913.13;;;12.00;59.43
26443;BME280;5563;52.296;6.806;2023-04-30T19:31:19;101917.97;;;11.94;60.16
26443;BME280;5563;52.296;6.806;2023-04-30T19:33:58;101904.47;;;11.71;60.59
26443;BME280;5563;52.296;6.806;2023-04-30T19:36:45;101941.78;;;11.85;61.08
26443;BME280;5563;52.296;6.806;2023-04-30T19:39:22;101925.19;;;11.67;61.28
26443;BME280;5563;52.296;6.806;2023-04-30T19:41:54;101946.56;;;11.67;61.46
26443;BME280;5563;52.296;6.806;2023-04-30T19:44:42;101925.78;;;11.46;61.86
26443;BME280;5563;52.296;6.806;2023-04-30T19:50:42;101913.13;;;11.23;61.15
26443;BME280;5563;52.296;6.806;2023-04-30T20:00:43;101908.78;;;11.08;62.67
26443;BME280;5563;52.296;6.806;2023-04-30T20:03:44;101907.47;;;11.01;62.21
26443;BME280;5563;52.296;6.806;2023-04-30T20:06:31;101906.69;;;10.99;61.86
26443;BME280;5563;52.296;6.806;2023-04-30T20:08:59;101906.59;;;11.00;61.71
26443;BME280;5563;52.296;6.806;2023-04-30T20:11:34;101901.69;;;10.94;62.72
26443;BME280;5563;52.296;6.806;2023-04-30T20:14:03;101895.47;;;10.94;62.71
26443;BME280;5563;52.296;6.806;2023-04-30T20:20:52;101926.91;;;11.03;61.34
26443;BME280;5563;52.296;6.806;2023-04-30T20:23:42;101891.22;;;10.77;62.25
26443;BME280;5563;52.296;6.806;2023-04-30T20:26:17;101905.78;;;10.85;61.66
26443;BME280;5563;52.296;6.806;2023-04-30T20:28:51;101885.56;;;10.69;62.15
26443;BME280;5563;52.296;6.806;2023-04-30T20:31:32;101881.25;;;10.66;61.80
26443;BME280;5563;52.296;6.806;2023-04-30T20:34:08;101898.31;;;10.78;62.18
26443;BME280;5563;52.296;6.806;2023-04-30T20:36:42;101910.72;;;10.92;61.41
26443;BME280;5563;52.296;6.806;2023-04-30T20:43:18;101892.56;;;10.84;61.23
26443;BME280;5563;52.296;6.806;2023-04-30T20:49:28;101872.22;;;10.69;61.91
26443;BME280;5563;52.296;6.806;2023-04-30T20:52:20;101883.53;;;10.72;61.40
26443;BME280;5563;52.296;6.806;2023-04-30T20:54:59;101876.78;;;10.67;60.91
26443;BME280;5563;52.296;6.806;2023-04-30T20:57:36;101905.34;;;10.79;62.79
26443;BME280;5563;52.296;6.806;2023-04-30T21:00:11;101867.59;;;10.58;62.55
26443;BME280;5563;52.296;6.806;2023-04-30T21:02:48;101875.88;;;10.54;62.55
26443;BME280;5563;52.296;6.806;2023-04-30T21:05:22;101877.09;;;10.48;63.03
26443;BME280;5563;52.296;6.806;2023-04-30T21:07:56;101862.00;;;10.35;63.25
26443;BME280;5563;52.296;6.806;2023-04-30T21:10:44;101889.59;;;10.48;63.18
26443;BME280;5563;52.296;6.806;2023-04-30T21:13:18;101873.16;;;10.27;63.23
26443;BME280;5563;52.296;6.806;2023-04-30T21:16:06;101871.81;;;10.20;63.44
26443;BME280;5563;52.296;6.806;2023-04-30T21:18:55;101903.13;;;10.31;64.14
26443;BME280;5563;52.296;6.806;2023-04-30T21:21:35;101866.22;;;10.11;64.68
26443;BME280;5563;52.296;6.806;2023-04-30T21:27:45;101869.59;;;9.99;64.90
26443;BME280;5563;52.296;6.806;2023-04-30T21:30:35;101850.69;;;9.89;64.87
26443;BME280;5563;52.296;6.806;2023-04-30T21:33:21;101846.88;;;9.79;65.35
26443;BME280;5563;52.296;6.806;2023-04-30T21:35:58;101848.03;;;9.75;66.07
26443;BME280;5563;52.296;6.806;2023-04-30T21:38:26;101868.88;;;9.82;66.51
26443;BME280;5563;52.296;6.806;2023-04-30T21:41:14;101865.22;;;9.69;66.50
26443;BME280;5563;52.296;6.806;2023-04-30T21:43:43;101858.56;;;9.62;67.45
26443;BME280;5563;52.296;6.806;2023-04-30T21:46:22;101860.34;;;9.62;67.53
26443;BME280;5563;52.296;6.806;2023-04-30T21:49:10;101841.69;;;9.48;67.91
26443;BME280;5563;52.296;6.806;2023-04-30T21:51:41;101849.97;;;9.43;67.73
26443;BME280;5563;52.296;6.806;2023-04-30T21:54:30;101841.22;;;9.41;66.94
26443;BME280;5563;52.296;6.806;2023-04-30T21:57:00;101827.59;;;9.32;67.32
26443;BME280;5563;52.296;6.806;2023-04-30T21:59:38;101848.34;;;9.41;67.62
26443;BME280;5563;52.296;6.806;2023-04-30T22:02:16;101827.88;;;9.27;67.42
26443;BME280;5563;52.296;6.806;2023-04-30T22:05:14;101840.13;;;9.30;66.95
26443;BME280;5563;52.296;6.806;2023-04-30T22:08:04;101861.56;;;9.42;67.22
26443;BME280;5563;52.296;6.806;2023-04-30T22:13:49;101824.81;;;9.19;67.40
26443;BME280;5563;52.296;6.806;2023-04-30T22:16:19;101830.81;;;9.23;67.92
26443;BME280;5563;52.296;6.806;2023-04-30T22:19:09;101822.06;;;9.21;67.74
26443;BME280;5563;52.296;6.806;2023-04-30T22:22:05;101845.31;;;9.33;67.25
26443;BME280;5563;52.296;6.806;2023-04-30T22:24:39;101793.81;;;9.04;67.31
26443;BME280;5563;52.296;6.806;2023-04-30T22:30:59;101828.16;;;9.23;67.01
26443;BME280;5563;52.296;6.806;2023-04-30T22:33:37;101812.25;;;9.07;67.48
26443;BME280;5563;52.296;6.806;2023-04-30T22:36:24;101804.56;;;9.03;67.97
26443;BME280;5563;52.296;6.806;2023-04-30T22:38:58;101830.50;;;9.13;67.89
26443;BME280;5563;52.296;6.806;2023-04-30T22:41:32;101797.69;;;8.99;68.69
26443;BME280;5563;52.296;6.806;2023-04-30T22:44:13;101790.16;;;8.91;67.65
26443;BME280;5563;52.296;6.806;2023-04-30T22:46:47;101802.25;;;8.97;67.89
26443;BME280;5563;52.296;6.806;2023-04-30T22:49:34;101781.78;;;8.83;67.58
26443;BME280;5563;52.296;6.806;2023-04-30T22:52:13;101791.56;;;8.83;68.21
26443;BME280;5563;52.296;6.806;2023-04-30T22:54:46;101815.25;;;9.01;67.97
26443;BME280;5563;52.296;6.806;2023-04-30T22:57:34;101801.13;;;8.85;68.75
26443;BME280;5563;52.296;6.806;2023-04-30T23:00:23;101818.09;;;8.98;68.10
26443;BME280;5563;52.296;6.806;2023-04-30T23:03:22;101812.78;;;8.98;68.37
26443;BME280;5563;52.296;6.806;2023-04-30T23:06:03;101782.22;;;8.76;68.56
26443;BME280;5563;52.296;6.806;2023-04-30T23:08:51;101778.69;;;8.75;69.31
26443;BME280;5563;52.296;6.806;2023-04-30T23:11:28;101781.44;;;8.73;68.44
26443;BME280;5563;52.296;6.806;2023-04-30T23:14:05;101780.88;;;8.68;68.87
26443;BME280;5563;52.296;6.806;2023-04-30T23:16:41;101796.97;;;8.81;68.80
26443;BME280;5563;52.296;6.806;2023-04-30T23:19:21;101806.47;;;8.85;69.00
26443;BME280;5563;52.296;6.806;2023-04-30T23:22:18;101802.97;;;8.85;68.33
26443;BME280;5563;52.296;6.806;2023-04-30T23:24:52;101780.00;;;8.68;68.18
26443;BME280;5563;52.296;6.806;2023-04-30T23:27:27;101784.97;;;8.74;68.65
26443;BME280;5563;52.296;6.806;2023-04-30T23:30:03;101769.75;;;8.62;68.78
26443;BME280;5563;52.296;6.806;2023-04-30T23:32:56;101798.09;;;8.77;68.35
26443;BME280;5563;52.296;6.806;2023-04-30T23:35:43;101757.81;;;8.53;68.85
26443;BME280;5563;52.296;6.806;2023-04-30T23:38:33;101774.44;;;8.57;69.27
26443;BME280;5563;52.296;6.806;2023-04-30T23:44:42;101768.06;;;8.45;69.06
26443;BME280;5563;52.296;6.806;2023-04-30T23:47:22;101750.94;;;8.35;69.15
26443;BME280;5563;52.296;6.806;2023-04-30T23:49:50;101750.06;;;8.35;69.59
26443;BME280;5563;52.296;6.806;2023-04-30T23:52:41;101764.44;;;8.46;69.83
26443;BME280;5563;52.296;6.806;2023-04-30T23:59:05;101750.84;;;8.37;69.55
